sensor_id;sensor_type;location;lat;lon;timestamp;pressure;altitude;pressure_sealevel;temperature;humidity
45941;BME280;31858;46.008;8.978;2023-05-25T00:06:48;94608.22;;;11.72;100.00
45941;BME280;31858;46.008;8.978;2023-05-25T00:16:51;94589.97;;;11.77;100.00
45941;BME280;31858;46.008;8.978;2023-05-25T00:26:52;94590.00;;;11.81;100.00
45941;BME280;31858;46.008;8.978;2023-05-25T00:36:55;94586.91;;;11.68;100.00
45941;BME280;31858;46.008;8.978;2023-05-25T00:46:58;94602.06;;;11.50;100.00
45941;BME280;31858;46.008;8.978;2023-05-25T00:57:02;94570.88;;;11.75;100.00
45941;BME280;31858;46.008;8.978;2023-05-25T01:07:08;94549.97;;;11.99;100.00
45941;BME280;31858;46.008;8.978;2023-05-25T01:17:14;94567.06;;;11.69;100.00
45941;BME280;31858;46.008;8.978;2023-05-25T01:27:21;94571.22;;;11.53;100.00
45941;BME280;31858;46.008;8.978;2023-05-25T01:37:23;94576.53;;;11.49;100.00
45941;BME280;31858;46.008;8.978;2023-05-25T01:47:31;94563.94;;;11.46;100.00
45941;BME280;31858;46.008;8.978;2023-05-25T01:57:35;94580.34;;;11.48;100.00
45941;BME280;31858;46.008;8.978;2023-05-25T02:07:39;94582.63;;;11.46;100.00
45941;BME280;31858;46.008;8.978;2023-05-25T02:17:40;94591.69;;;11.31;100.00
45941;BME280;31858;46.008;8.978;2023-05-25T02:27:43;94553.31;;;11.71;100.00
45941;BME280;31858;46.008;8.978;2023-05-25T02:37:45;94550.72;;;11.82;100.00
45941;BME280;31858;46.008;8.978;2023-05-25T02:47:48;94576.97;;;11.72;100.00
45941;BME280;31858;46.008;8.978;2023-05-25T02:57:50;94589.22;;;11.81;100.00
45941;BME280;31858;46.008;8.978;2023-05-25T03:07:53;94592.59;;;11.63;100.00
45941;BME280;31858;46.008;8.978;2023-05-25T03:17:54;94612.78;;;11.57;100.00
45941;BME280;31858;46.008;8.978;2023-05-25T03:28:01;94607.09;;;11.76;100.00
45941;BME280;31858;46.008;8.978;2023-05-25T03:38:03;94626.13;;;11.61;100.00
45941;BME280;31858;46.008;8.978;2023-05-25T03:48:06;94629.59;;;11.68;100.00
45941;BME280;31858;46.008;8.978;2023-05-25T03:58:08;94616.69;;;11.81;100.00
45941;BME280;31858;46.008;8.978;2023-05-25T04:08:12;94639.13;;;11.69;100.00
45941;BME280;31858;46.008;8.978;2023-05-25T04:18:17;94670.44;;;11.80;100.00
45941;BME280;31858;46.008;8.978;2023-05-25T04:28:21;94682.66;;;11.77;100.00
45941;BME280;31858;46.008;8.978;2023-05-25T04:38:22;94695.19;;;11.69;100.00
45941;BME280;31858;46.008;8.978;2023-05-25T04:48:25;94710.81;;;11.67;100.00
45941;BME280;31858;46.008;8.978;2023-05-25T04:58:28;94745.13;;;11.72;100.00
45941;BME280;31858;46.008;8.978;2023-05-25T05:08:31;94729.63;;;11.89;100.00
45941;BME280;31858;46.008;8.978;2023-05-25T05:18:32;94767.00;;;11.89;100.00
45941;BME280;31858;46.008;8.978;2023-05-25T05:38:07;94768.16;;;11.91;100.00
45941;BME280;31858;46.008;8.978;2023-05-25T05:48:09;94778.88;;;12.02;100.00
45941;BME280;31858;46.008;8.978;2023-05-25T05:58:12;94804.06;;;12.01;100.00
45941;BME280;31858;46.008;8.978;2023-05-25T06:08:13;94811.69;;;11.99;100.00
45941;BME280;31858;46.008;8.978;2023-05-25T06:18:16;94818.66;;;12.18;100.00
45941;BME280;31858;46.008;8.978;2023-05-25T06:28:18;94843.44;;;12.15;100.00
45941;BME280;31858;46.008;8.978;2023-05-25T06:38:21;94876.66;;;12.17;100.00
45941;BME280;31858;46.008;8.978;2023-05-25T06:48:23;94869.88;;;12.30;100.00
45941;BME280;31858;46.008;8.978;2023-05-25T06:58:26;94888.25;;;12.39;100.00
45941;BME280;31858;46.008;8.978;2023-05-25T07:08:27;94912.16;;;12.21;100.00
45941;BME280;31858;46.008;8.978;2023-05-25T07:18:30;94944.53;;;12.13;100.00
45941;BME280;31858;46.008;8.978;2023-05-25T07:28:32;94953.00;;;12.18;100.00
45941;BME280;31858;46.008;8.978;2023-05-25T07:38:35;94971.81;;;12.36;100.00
45941;BME280;31858;46.008;8.978;2023-05-25T07:48:37;94987.94;;;12.50;100.00
45941;BME280;31858;46.008;8.978;2023-05-25T07:58:40;94996.00;;;12.54;100.00
45941;BME280;31858;46.008;8.978;2023-05-25T08:08:42;95007.91;;;12.67;100.00
45941;BME280;31858;46.008;8.978;2023-05-25T08:18:45;95022.91;;;12.82;100.00
45941;BME280;31858;46.008;8.978;2023-05-25T08:28:47;95035.22;;;12.97;100.00
45941;BME280;31858;46.008;8.978;2023-05-25T08:38:50;95049.84;;;13.18;100.00
45941;BME280;31858;46.008;8.978;2023-05-25T08:48:53;95046.47;;;13.31;100.00
45941;BME280;31858;46.008;8.978;2023-05-25T08:59:01;95046.94;;;13.51;100.00
45941;BME280;31858;46.008;8.978;2023-05-25T09:09:07;95055.41;;;13.60;100.00
45941;BME280;31858;46.008;8.978;2023-05-25T09:19:10;95055.78;;;13.62;100.00
45941;BME280;31858;46.008;8.978;2023-05-25T09:29:12;95065.00;;;13.72;100.00
45941;BME280;31858;46.008;8.978;2023-05-25T09:39:15;95065.41;;;13.85;100.00
45941;BME280;31858;46.008;8.978;2023-05-25T09:49:17;95047.09;;;14.01;100.00
45941;BME280;31858;46.008;8.978;2023-05-25T09:59:22;95048.63;;;14.34;100.00
45941;BME280;31858;46.008;8.978;2023-05-25T10:09:24;95041.00;;;14.82;100.00
45941;BME280;31858;46.008;8.978;2023-05-25T10:19:34;95009.50;;;15.15;100.00
45941;BME280;31858;46.008;8.978;2023-05-25T10:29:38;95029.41;;;15.21;100.00
45941;BME280;31858;46.008;8.978;2023-05-25T10:39:41;95023.22;;;15.34;100.00
45941;BME280;31858;46.008;8.978;2023-05-25T10:49:53;95026.22;;;15.58;100.00
45941;BME280;31858;46.008;8.978;2023-05-25T11:00:02;94991.94;;;15.80;100.00
45941;BME280;31858;46.008;8.978;2023-05-25T11:10:06;94981.47;;;15.96;100.00
45941;BME280;31858;46.008;8.978;2023-05-25T11:20:20;94973.31;;;16.10;100.00
45941;BME280;31858;46.008;8.978;2023-05-25T11:30:26;94983.63;;;16.15;100.00
45941;BME280;31858;46.008;8.978;2023-05-25T11:40:29;94972.81;;;16.22;100.00
45941;BME280;31858;46.008;8.978;2023-05-25T11:50:31;94964.66;;;16.37;100.00
45941;BME280;31858;46.008;8.978;2023-05-25T12:00:34;94967.22;;;16.51;100.00
45941;BME280;31858;46.008;8.978;2023-05-25T12:10:48;94953.50;;;16.79;100.00
45941;BME280;31858;46.008;8.978;2023-05-25T12:20:51;94943.63;;;17.03;100.00
45941;BME280;31858;46.008;8.978;2023-05-25T12:30:52;94944.28;;;17.11;100.00
45941;BME280;31858;46.008;8.978;2023-05-25T12:41:05;94925.91;;;17.36;100.00
45941;BME280;31858;46.008;8.978;2023-05-25T12:51:07;94922.75;;;17.72;100.00
45941;BME280;31858;46.008;8.978;2023-05-25T13:01:11;94919.03;;;17.89;100.00
45941;BME280;31858;46.008;8.978;2023-05-25T13:11:12;94919.56;;;18.04;100.00
45941;BME280;31858;46.008;8.978;2023-05-25T13:21:15;94907.91;;;18.10;100.00
45941;BME280;31858;46.008;8.978;2023-05-25T13:31:17;94899.00;;;17.90;100.00
45941;BME280;31858;46.008;8.978;2023-05-25T13:41:20;94896.19;;;17.97;100.00
45941;BME280;31858;46.008;8.978;2023-05-25T13:51:22;94886.22;;;18.61;100.00
45941;BME280;31858;46.008;8.978;2023-05-25T14:01:25;94889.63;;;19.04;100.00
45941;BME280;31858;46.008;8.978;2023-05-25T14:11:27;94879.31;;;19.55;100.00
45941;BME280;31858;46.008;8.978;2023-05-25T14:21:30;94875.59;;;19.98;100.00
45941;BME280;31858;46.008;8.978;2023-05-25T14:31:32;94860.63;;;20.26;100.00
45941;BME280;31858;46.008;8.978;2023-05-25T14:41:35;94861.53;;;20.51;100.00
45941;BME280;31858;46.008;8.978;2023-05-25T14:51:37;94857.16;;;20.70;100.00
45941;BME280;31858;46.008;8.978;2023-05-25T15:01:40;94855.22;;;20.83;100.00
45941;BME280;31858;46.008;8.978;2023-05-25T15:11:41;94861.09;;;20.95;100.00
45941;BME280;31858;46.008;8.978;2023-05-25T15:21:44;94848.44;;;21.04;100.00
45941;BME280;31858;46.008;8.978;2023-05-25T15:31:49;94849.97;;;21.05;100.00
45941;BME280;31858;46.008;8.978;2023-05-25T15:41:52;94847.38;;;21.02;100.00
45941;BME280;31858;46.008;8.978;2023-05-25T15:51:53;94857.00;;;21.03;100.00
45941;BME280;31858;46.008;8.978;2023-05-25T16:01:56;94869.22;;;20.95;100.00
45941;BME280;31858;46.008;8.978;2023-05-25T16:11:58;94874.31;;;20.93;100.00
45941;BME280;31858;46.008;8.978;2023-05-25T16:22:01;94880.78;;;20.82;100.00
45941;BME280;31858;46.008;8.978;2023-05-25T16:32:03;94878.69;;;21.03;100.00
45941;BME280;31858;46.008;8.978;2023-05-25T16:42:07;94873.31;;;20.87;100.00
45941;BME280;31858;46.008;8.978;2023-05-25T16:52:08;94879.72;;;20.80;100.00
45941;BME280;31858;46.008;8.978;2023-05-25T17:02:11;94874.06;;;20.74;100.00
45941;BME280;31858;46.008;8.978;2023-05-25T17:12:13;94879.50;;;20.74;100.00
45941;BME280;31858;46.008;8.978;2023-05-25T17:22:16;94884.25;;;20.70;100.00
45941;BME280;31858;46.008;8.978;2023-05-25T17:32:17;94885.28;;;20.60;100.00
45941;BME280;31858;46.008;8.978;2023-05-25T17:42:20;94888.94;;;20.54;100.00
45941;BME280;31858;46.008;8.978;2023-05-25T17:52:22;94897.41;;;20.23;100.00
45941;BME280;31858;46.008;8.978;2023-05-25T18:02:25;94894.44;;;19.85;100.00
45941;BME280;31858;46.008;8.978;2023-05-25T18:12:28;94908.81;;;18.70;100.00
45941;BME280;31858;46.008;8.978;2023-05-25T18:22:31;94951.81;;;17.26;100.00
45941;BME280;31858;46.008;8.978;2023-05-25T18:32:33;94948.53;;;16.78;100.00
45941;BME280;31858;46.008;8.978;2023-05-25T18:42:36;94941.44;;;16.53;100.00
45941;BME280;31858;46.008;8.978;2023-05-25T18:52:37;94945.88;;;16.29;100.00
45941;BME280;31858;46.008;8.978;2023-05-25T19:02:41;94933.94;;;15.86;100.00
45941;BME280;31858;46.008;8.978;2023-05-25T19:12:43;94945.69;;;15.47;100.00
45941;BME280;31858;46.008;8.978;2023-05-25T19:22:46;94964.91;;;15.39;100.00
45941;BME280;31858;46.008;8.978;2023-05-25T19:32:48;94954.16;;;15.42;100.00
45941;BME280;31858;46.008;8.978;2023-05-25T19:42:50;94970.97;;;15.53;100.00
45941;BME280;31858;46.008;8.978;2023-05-25T19:52:52;94967.84;;;15.62;100.00
45941;BME280;31858;46.008;8.978;2023-05-25T20:02:55;94965.59;;;15.57;100.00
45941;BME280;31858;46.008;8.978;2023-05-25T20:12:57;94965.09;;;15.73;100.00
45941;BME280;31858;46.008;8.978;2023-05-25T20:23:00;94972.34;;;15.79;100.00
45941;BME280;31858;46.008;8.978;2023-05-25T20:33:01;94974.69;;;15.77;100.00
45941;BME280;31858;46.008;8.978;2023-05-25T20:43:04;94977.00;;;15.72;100.00
45941;BME280;31858;46.008;8.978;2023-05-25T20:53:06;94969.38;;;15.66;100.00
45941;BME280;31858;46.008;8.978;2023-05-25T21:03:09;94969.38;;;15.63;100.00
45941;BME280;31858;46.008;8.978;2023-05-25T21:13:10;94968.31;;;15.46;100.00
45941;BME280;31858;46.008;8.978;2023-05-25T21:23:14;94958.00;;;15.41;100.00
45941;BME280;31858;46.008;8.978;2023-05-25T21:33:15;94952.31;;;15.25;100.00
45941;BME280;31858;46.008;8.978;2023-05-25T21:43:18;94952.34;;;15.18;100.00
45941;BME280;31858;46.008;8.978;2023-05-25T21:53:20;94947.34;;;15.20;100.00
45941;BME280;31858;46.008;8.978;2023-05-25T22:03:23;94946.63;;;15.09;100.00
45941;BME280;31858;46.008;8.978;2023-05-25T22:13:25;94952.72;;;15.20;100.00
45941;BME280;31858;46.008;8.978;2023-05-25T22:23:28;94953.91;;;15.08;100.00
45941;BME280;31858;46.008;8.978;2023-05-25T22:33:29;94956.22;;;15.02;100.00
45941;BME280;31858;46.008;8.978;2023-05-25T22:43:32;94946.66;;;14.98;100.00
45941;BME280;31858;46.008;8.978;2023-05-25T22:53:34;94954.75;;;14.87;100.00
45941;BME280;31858;46.008;8.978;2023-05-25T23:03:37;94942.50;;;14.79;100.00
45941;BME280;31858;46.008;8.978;2023-05-25T23:13:39;94933.66;;;14.89;100.00
45941;BME280;31858;46.008;8.978;2023-05-25T23:23:43;94933.72;;;14.75;100.00
45941;BME280;31858;46.008;8.978;2023-05-25T23:33:44;94934.88;;;14.67;100.00
45941;BME280;31858;46.008;8.978;2023-05-25T23:43:47;94926.06;;;14.70;100.00
45941;BME280;31858;46.008;8.978;2023-05-25T23:53:49;94921.81;;;14.76;100.00
